Terminal Aerodrome Forecast
Issued by NWS Quad Cities IA IL

Home | Current Version | Previous Version | Text Only | Print | Product List | Glossary On
Versions: 1 2 3 4 5 6 7 8 9 10 11 12 13 14 15 16 17 18 19 20 21 22 23
000
FTUS43 KDVN 192100 AAC
TAFDBQ
TAF AMD
KDBQ 192147Z 1922/2018 16005KT P6SM OVC026
     FM200300 16005KT 5SM BR OVC020
     FM200900 15005KT 2SM BR OVC007=

USA.gov is the U.S. government's official web portal to all federal, state and local government web resources and services.